map of GUM home
GUM - Airport
Location
City:  Agana, Guam, United States
Name:Guam International Airport
Old (Alt.):Antonio B. Won Pat International Airport
ICAO:PGUM
IATA:GUM
FAA LID:GUM

Details
Type:Airport (Part 139 Class I)
Use:Public/Civil, International (customs landing rights)
Latitude:1329'02"N (13.483953)
Longitude:14447'50"E (144.797132)
Datum:WGS 1984
Elevation:305 ft (93 m)
Variation:0.80E (WMM2015 magnetic declination)
-0.07 annual change
Runways:2
Longest:12015 × 150 ft (3662 × 45.5 m), paved

Time
Time Zone:UTC+10
Local Time:

Weather
METAR:PGUM 240654Z 07009KT 10SM FEW029 SCT040 29/23 A2991 RMK AO2 SLP119 T02940233
TAF:PGUM 240523Z 2406/2512 04009KT P6SM VCSH FEW018 SCT035= TAF PGSN 240523Z 2406/2506 05011KT P6SM VCSH FEW018 SCT030 BKN100

Related Locations
Nearby:
Farthest:SNME: 12245 mi / 19706 km
Mata de So Joo [Costa dos Coqueiros], BA, BR

Find:

   beyond  
but within

Other Information
Maps:
NOTAMs:
Links:
Sources:

  
flag of United States
flag of Guam
  

Airport Diagram

Airport diagram for GUM

Airport diagram PDF

Sectional Chart

Flight Planning
at skyvector.com

Satellite Image

Google Maps Satellite view

 

Copyright © 2004-2017 Karl L. Swartz. All rights reserved.
The Great Circle Mapper name and logo are trademarks of the Great Circle Mapper.
All other trademarks mentioned herein belong to their respective owners.
Please see credits for attibutions and further copyright information.

  Follow gcmap on Facebook Follow gcmap on Twitter Follow gcmap on Google+ GCmap on LinkedIn

hCard Microformat

Geo Microformat